ZIX weather

Zhigansk Airport
Zhigansk, Sakha (Yakutia) Republic, Russia

Public forecast

Using degrees Celsius for public forecast. Weather courtesy of forecast.io.

METAR (pilot weather report)

Closest report is Polyarny Airport, 270.9 nm (501.7 km) W. Retrieved 2019/04/22 08:00 UTC (5 minutes ago):

UERP 220800Z 28003MPS CAVOK M03/M16 Q1002 R35/090237 NOSIG RMK QFE707

TAF (pilot weather forecast)

Closest forecast is Polyarny Airport, 270.9 nm (501.7 km) W. Retrieved 2019/04/22 09:21 UTC (0 seconds ago):

TAF UERP 220800Z 2209/2309 27004MPS 9999 BKN017CB OVC100 TEMPO 2209/2221 2000 SHSN BKN007 BKN017CB OVC100